Time;durP1;ratioP1;P1;durP2;ratioP2;P2;SDS_P1;SDS_P2;PMS_P1;PMS_P2;Temp;Humidity;BMP_temperature;BMP_pressure;BME280_temperature;BME280_humidity;BME280_pressure;Samples;Min_cycle;Max_cycle;Signal;HPM_P1;HPM_P2
2022/07/12 00:00:29;;;;;;;;;;;;;;;26.45;43.05;102029.53;7280463;19;153175;-63
2022/07/12 00:02:56;;;;;;;;;;;;;;;26.41;41.99;102025.66;7278389;19;152770;-63
2022/07/12 00:05:23;;;;;;;;;;;;;;;26.45;42.13;102023.84;7276999;19;153687;-64
2022/07/12 00:07:50;;;;;;;;;;;;;;;26.42;41.89;102027.34;7287108;19;153202;-63
2022/07/12 00:10:17;;;;;;;;;;;;;;;26.46;42.67;102034.03;7276423;19;153218;-62
2022/07/12 00:12:43;;;;;;;;;;;;;;;26.45;42.64;102031.50;7277059;19;152072;-62
2022/07/12 00:15:10;;;;;;;;;;;;;;;26.44;42.64;102027.84;7277117;19;152590;-63
2022/07/12 00:17:38;;;;;;;;;;;;;;;26.51;43.03;102033.91;7276122;19;153541;-63
2022/07/12 00:20:05;;;;;;;;;;;;;;;26.46;42.19;102033.19;7277348;19;152160;-63
2022/07/12 00:22:32;;;;;;;;;;;;;;;26.46;42.87;102033.19;7278217;19;153665;-64
2022/07/12 00:24:59;;;;;;;;;;;;;;;26.45;42.16;102031.50;7275238;19;152348;-62
2022/07/12 00:27:25;;;;;;;;;;;;;;;26.47;42.24;102027.22;7285509;19;152425;-63
2022/07/12 00:29:52;;;;;;;;;;;;;;;26.50;42.65;102028.56;7274878;19;152419;-64
2022/07/12 00:32:19;;;;;;;;;;;;;;;26.48;42.09;102028.88;7279523;19;151841;-63
2022/07/12 00:34:45;;;;;;;;;;;;;;;26.44;42.11;102027.84;7277625;19;152516;-63
2022/07/12 00:37:12;;;;;;;;;;;;;;;26.45;42.18;102023.00;7274216;19;153504;-63
2022/07/12 00:39:39;;;;;;;;;;;;;;;26.50;42.68;102018.06;7278496;19;152427;-63
2022/07/12 00:42:06;;;;;;;;;;;;;;;26.59;42.58;102032.28;7276709;19;153330;-64
2022/07/12 00:44:33;;;;;;;;;;;;;;;26.51;42.12;102022.56;7278948;19;153303;-63
2022/07/12 00:47:01;;;;;;;;;;;;;;;26.47;42.70;102021.53;7277168;19;152817;-64
2022/07/12 00:49:29;;;;;;;;;;;;;;;26.51;42.63;102016.06;7284472;19;153913;-65
2022/07/12 00:51:55;;;;;;;;;;;;;;;26.47;42.10;102018.72;7277428;19;152791;-64
2022/07/12 00:54:22;;;;;;;;;;;;;;;26.50;43.32;102014.38;7276083;19;153075;-64
2022/07/12 00:56:49;;;;;;;;;;;;;;;26.49;42.48;102019.22;7275490;19;154522;-64
2022/07/12 00:59:16;;;;;;;;;;;;;;;26.48;42.71;102014.69;7278136;19;152118;-64
2022/07/12 01:01:42;;;;;;;;;;;;;;;26.49;42.90;102015.53;7273827;19;153519;-64
2022/07/12 01:04:09;;;;;;;;;;;;;;;26.47;42.60;102015.88;7274661;19;154193;-64
2022/07/12 01:06:36;;;;;;;;;;;;;;;26.47;41.71;102000.88;7277253;19;154529;-64
2022/07/12 01:09:03;;;;;;;;;;;;;;;26.51;42.37;102007.56;7275979;19;152795;-64
2022/07/12 01:11:31;;;;;;;;;;;;;;;26.47;42.08;102010.22;7283692;19;153529;-64
2022/07/12 01:13:58;;;;;;;;;;;;;;;26.47;42.38;102013.03;7278029;19;154208;-64
2022/07/12 01:16:25;;;;;;;;;;;;;;;26.45;42.78;102009.69;7276942;19;153231;-64
2022/07/12 01:18:52;;;;;;;;;;;;;;;26.55;42.34;102005.75;7276463;19;153021;-63
2022/07/12 01:21:22;;;;;;;;;;;;;;;26.50;42.91;102014.38;7275837;19;151717;-63
2022/07/12 01:23:49;;;;;;;;;;;;;;;26.53;42.45;102002.38;7278247;19;152392;-63
2022/07/12 01:26:16;;;;;;;;;;;;;;;26.50;42.15;102011.53;7283228;19;152355;-63
2022/07/12 01:28:43;;;;;;;;;;;;;;;26.46;41.94;102013.34;7283278;19;153496;-63
2022/07/12 01:31:10;;;;;;;;;;;;;;;26.37;42.70;102018.13;7283907;19;153328;-64
2022/07/12 01:33:36;;;;;;;;;;;;;;;26.38;41.46;102012.16;7290068;19;153282;-63
2022/07/12 01:36:04;;;;;;;;;;;;;;;26.35;41.90;102015.59;7281926;19;156016;-63
2022/07/12 01:38:30;;;;;;;;;;;;;;;26.36;42.39;102013.59;7279652;19;152648;-63
2022/07/12 01:40:57;;;;;;;;;;;;;;;26.38;41.39;102020.66;7280922;19;152798;-63
2022/07/12 01:43:24;;;;;;;;;;;;;;;26.39;41.79;102015.81;7282547;19;154099;-63
2022/07/12 01:45:51;;;;;;;;;;;;;;;26.42;41.27;102016.00;7280700;19;151940;-63
2022/07/12 01:48:18;;;;;;;;;;;;;;;26.44;41.84;102021.31;7283699;19;153420;-63
2022/07/12 01:50:47;;;;;;;;;;;;;;;26.42;41.67;102020.84;7277468;19;154089;-63
2022/07/12 01:53:14;;;;;;;;;;;;;;;26.45;41.56;102023.00;7282662;19;152077;-63
2022/07/12 01:55:40;;;;;;;;;;;;;;;26.37;42.22;102020.97;7288570;19;153445;-64
2022/07/12 01:58:07;;;;;;;;;;;;;;;26.37;41.88;102024.63;7282410;19;151943;-63
2022/07/12 02:00:34;;;;;;;;;;;;;;;26.41;41.42;102021.97;7282796;19;153069;-63
2022/07/12 02:03:00;;;;;;;;;;;;;;;26.38;41.46;102017.81;7279492;19;153542;-63
2022/07/12 02:05:28;;;;;;;;;;;;;;;26.32;41.57;102023.91;7281288;19;152467;-63
2022/07/12 02:07:54;;;;;;;;;;;;;;;26.29;41.69;102033.91;7282284;19;152373;-63
2022/07/12 02:10:21;;;;;;;;;;;;;;;26.27;41.11;102039.06;7280178;19;154196;-62
2022/07/12 02:12:48;;;;;;;;;;;;;;;26.27;40.58;102041.03;7284378;19;152752;-63
2022/07/12 02:15:15;;;;;;;;;;;;;;;26.33;41.42;102025.59;7282086;19;153570;-63
2022/07/12 02:17:42;;;;;;;;;;;;;;;26.34;41.18;102019.63;7288700;19;152696;-63
2022/07/12 02:20:09;;;;;;;;;;;;;;;26.38;41.38;102014.13;7281802;19;152610;-64
2022/07/12 02:22:36;;;;;;;;;;;;;;;26.33;40.53;102009.44;7281305;19;154336;-64
2022/07/12 02:25:03;;;;;;;;;;;;;;;26.30;41.28;102014.91;7279949;19;152353;-63
2022/07/12 02:27:30;;;;;;;;;;;;;;;26.27;41.19;102024.03;7281812;19;154190;-63
2022/07/12 02:29:56;;;;;;;;;;;;;;;26.27;41.10;102004.22;7281384;19;153283;-63
2022/07/12 02:32:23;;;;;;;;;;;;;;;26.34;41.31;102005.44;7282397;19;152313;-63
2022/07/12 02:34:49;;;;;;;;;;;;;;;26.28;41.08;102011.56;7279745;19;153714;-63
2022/07/12 02:37:16;;;;;;;;;;;;;;;26.21;41.50;102011.19;7286322;19;154013;-64
2022/07/12 02:39:43;;;;;;;;;;;;;;;26.26;41.08;102016.69;7280823;19;152898;-63
2022/07/12 02:42:09;;;;;;;;;;;;;;;26.20;40.61;102018.81;7281157;19;154559;-63
2022/07/12 02:44:36;;;;;;;;;;;;;;;26.19;41.30;102021.97;7282099;19;153534;-63
2022/07/12 02:47:03;;;;;;;;;;;;;;;26.22;41.19;102022.19;7281109;19;152771;-63
2022/07/12 02:49:30;;;;;;;;;;;;;;;26.22;41.01;102022.19;7280572;19;153747;-63
2022/07/12 02:51:56;;;;;;;;;;;;;;;26.21;40.84;102016.84;7280327;19;152960;-63
2022/07/12 02:54:23;;;;;;;;;;;;;;;26.25;40.79;102015.03;7278904;19;153433;-63
2022/07/12 02:56:50;;;;;;;;;;;;;;;26.21;40.95;102017.66;7279943;19;153723;-64
2022/07/12 02:59:16;;;;;;;;;;;;;;;26.22;40.73;102024.16;7286944;19;152561;-64
2022/07/12 03:01:43;;;;;;;;;;;;;;;26.20;40.60;102015.97;7276935;19;153321;-63
2022/07/12 03:04:10;;;;;;;;;;;;;;;26.26;41.06;102017.53;7280055;19;153547;-64
2022/07/12 03:06:37;;;;;;;;;;;;;;;26.23;40.79;102009.69;7278618;19;153217;-63
2022/07/12 03:09:05;;;;;;;;;;;;;;;26.19;41.09;102016.28;7278629;19;153797;-63
2022/07/12 03:11:36;;;;;;;;;;;;;;;26.12;41.03;102011.91;7278969;19;152221;-63
2022/07/12 03:14:02;;;;;;;;;;;;;;;26.15;41.04;102007.59;7281264;19;152435;-63
2022/07/12 03:16:29;;;;;;;;;;;;;;;26.24;41.37;102008.53;7280594;19;153667;-63
2022/07/12 03:18:56;;;;;;;;;;;;;;;26.21;41.35;102014.81;7278542;19;152478;-63
2022/07/12 03:21:22;;;;;;;;;;;;;;;26.17;41.69;102010.94;7286102;19;153419;-63
2022/07/12 03:23:49;;;;;;;;;;;;;;;26.20;41.44;102000.97;7276825;19;153177;-63
2022/07/12 03:26:16;;;;;;;;;;;;;;;26.23;41.20;102003.19;7279469;19;155041;-64
2022/07/12 03:28:42;;;;;;;;;;;;;;;26.22;41.12;102001.50;7277417;19;152709;-63
2022/07/12 03:31:09;;;;;;;;;;;;;;;26.18;41.59;101998.44;7280888;19;153109;-63
2022/07/12 03:33:36;;;;;;;;;;;;;;;26.15;41.38;101998.25;7281683;19;152935;-63
2022/07/12 03:36:03;;;;;;;;;;;;;;;26.18;41.52;101992.78;7279244;19;153305;-62
2022/07/12 03:38:29;;;;;;;;;;;;;;;26.16;41.58;101989.44;7277840;19;152233;-62
2022/07/12 03:40:56;;;;;;;;;;;;;;;26.20;41.83;101989.63;7279823;19;152599;-62
2022/07/12 03:43:23;;;;;;;;;;;;;;;26.19;41.65;101977.47;7285494;19;154079;-63
2022/07/12 03:45:49;;;;;;;;;;;;;;;26.21;41.46;101982.84;7280088;19;153300;-63
2022/07/12 03:48:16;;;;;;;;;;;;;;;26.17;41.68;101985.44;7279421;19;153761;-63
2022/07/12 03:50:43;;;;;;;;;;;;;;;26.21;41.07;101989.31;7278125;19;152113;-64
2022/07/12 03:53:10;;;;;;;;;;;;;;;26.19;41.29;101994.47;7279429;19;152318;-63
2022/07/12 03:55:36;;;;;;;;;;;;;;;26.17;41.36;101984.59;7276174;19;153873;-63
2022/07/12 03:58:03;;;;;;;;;;;;;;;26.13;41.67;101988.06;7279713;19;151909;-63
2022/07/12 04:00:30;;;;;;;;;;;;;;;26.12;41.57;101989.22;7278302;19;153014;-63
2022/07/12 04:02:56;;;;;;;;;;;;;;;26.16;41.58;101975.28;7276708;19;153962;-63
2022/07/12 04:05:26;;;;;;;;;;;;;;;26.10;41.59;101985.06;7285779;19;151682;-63
2022/07/12 04:07:54;;;;;;;;;;;;;;;26.15;41.39;101987.78;7278833;19;153717;-63
2022/07/12 04:10:21;;;;;;;;;;;;;;;26.09;41.56;101986.22;7278052;19;152635;-63
2022/07/12 04:12:48;;;;;;;;;;;;;;;26.08;41.61;101993.03;7280518;19;153563;-63
2022/07/12 04:15:16;;;;;;;;;;;;;;;26.07;41.69;101983.69;7278883;19;154355;-63
2022/07/12 04:17:42;;;;;;;;;;;;;;;26.00;41.86;101991.81;7279793;19;152533;-63
2022/07/12 04:20:10;;;;;;;;;;;;;;;26.10;41.28;101997.22;7279090;19;153392;-63
2022/07/12 04:22:37;;;;;;;;;;;;;;;26.03;41.50;101990.31;7277276;19;153347;-63
2022/07/12 04:25:03;;;;;;;;;;;;;;;26.09;41.26;101989.88;7279190;19;152490;-63
2022/07/12 04:27:30;;;;;;;;;;;;;;;26.06;41.57;101995.38;7284597;19;153456;-63
2022/07/12 04:30:00;;;;;;;;;;;;;;;26.04;41.17;101994.84;7280369;19;152238;-62
2022/07/12 04:32:29;;;;;;;;;;;;;;;26.02;41.54;101998.00;7278853;19;155506;-62
2022/07/12 04:34:55;;;;;;;;;;;;;;;26.04;41.29;101998.50;7278076;19;153979;-63
2022/07/12 04:37:22;;;;;;;;;;;;;;;26.06;41.56;101996.19;7277310;19;152180;-62
2022/07/12 04:39:49;;;;;;;;;;;;;;;26.12;41.17;101999.72;7269534;19;153279;-62
2022/07/12 04:42:16;;;;;;;;;;;;;;;26.09;41.38;101994.72;7277281;19;154184;-62
2022/07/12 04:44:43;;;;;;;;;;;;;;;26.06;41.40;102003.88;7279748;19;152503;-62
2022/07/12 04:47:10;;;;;;;;;;;;;;;26.02;41.57;102002.84;7283814;19;152585;-62
2022/07/12 04:49:38;;;;;;;;;;;;;;;26.14;41.51;102000.25;7279955;19;151767;-62
2022/07/12 04:52:05;;;;;;;;;;;;;;;26.13;41.64;101995.75;7277601;19;153457;-64
2022/07/12 04:54:32;;;;;;;;;;;;;;;26.09;41.88;101998.38;7273157;19;152608;-64
2022/07/12 04:56:58;;;;;;;;;;;;;;;26.08;41.70;102001.53;7276821;19;151835;-63
2022/07/12 04:59:25;;;;;;;;;;;;;;;26.17;41.52;102005.25;7282820;19;152811;-63
2022/07/12 05:01:52;;;;;;;;;;;;;;;26.08;41.78;102004.34;7282530;19;152672;-63
2022/07/12 05:04:19;;;;;;;;;;;;;;;26.03;42.08;102008.16;7285183;19;151656;-63
2022/07/12 05:06:45;;;;;;;;;;;;;;;26.17;41.78;102005.25;7284775;19;152627;-62
2022/07/12 05:09:13;;;;;;;;;;;;;;;26.21;41.78;102008.34;7289992;19;153316;-62
2022/07/12 05:11:40;;;;;;;;;;;;;;;26.10;41.90;102014.22;7284825;19;155423;-63
2022/07/12 05:14:07;;;;;;;;;;;;;;;26.12;42.41;102020.41;7285205;19;154156;-63
2022/07/12 05:16:33;;;;;;;;;;;;;;;26.10;42.29;102019.91;7284601;19;151921;-63
2022/07/12 05:19:01;;;;;;;;;;;;;;;26.09;42.02;102029.53;7281501;19;153723;-64
2022/07/12 05:21:28;;;;;;;;;;;;;;;26.12;42.62;102034.56;7282482;19;154049;-63
2022/07/12 05:23:54;;;;;;;;;;;;;;;26.02;42.53;102034.81;7282624;19;152630;-62
2022/07/12 05:26:21;;;;;;;;;;;;;;;26.07;42.67;102031.84;7286029;19;152548;-62
2022/07/12 05:28:48;;;;;;;;;;;;;;;26.10;42.62;102036.91;7283003;19;153774;-62
2022/07/12 05:31:14;;;;;;;;;;;;;;;26.06;43.07;102032.19;7292218;19;153428;-63
2022/07/12 05:33:41;;;;;;;;;;;;;;;26.06;43.13;102038.69;7281999;19;154729;-63
2022/07/12 05:36:08;;;;;;;;;;;;;;;26.11;43.66;102027.25;7281440;19;153516;-63
2022/07/12 05:38:38;;;;;;;;;;;;;;;26.05;43.91;102039.00;7279524;19;152460;-63
2022/07/12 05:41:04;;;;;;;;;;;;;;;26.16;43.17;102031.09;7283865;19;153919;-62
2022/07/12 05:43:32;;;;;;;;;;;;;;;26.06;43.62;102029.34;7284746;19;152075;-62
2022/07/12 05:45:59;;;;;;;;;;;;;;;26.09;43.47;102032.38;7282799;19;152506;-62
2022/07/12 05:48:26;;;;;;;;;;;;;;;26.16;43.31;102033.94;7282099;19;153621;-63
2022/07/12 05:50:53;;;;;;;;;;;;;;;26.13;43.49;102032.56;7281966;19;153343;-62
2022/07/12 05:53:22;;;;;;;;;;;;;;;26.06;43.75;102033.03;7288286;19;152578;-63
2022/07/12 05:55:53;;;;;;;;;;;;;;;26.12;43.45;102025.22;7283335;19;154152;-63
2022/07/12 05:58:21;;;;;;;;;;;;;;;26.19;43.27;102030.44;7283865;19;153767;-64
2022/07/12 06:00:47;;;;;;;;;;;;;;;26.14;43.30;102020.09;7281214;19;154497;-63
2022/07/12 06:03:14;;;;;;;;;;;;;;;26.10;43.54;102024.72;7283352;19;152892;-63
2022/07/12 06:05:41;;;;;;;;;;;;;;;26.09;43.71;102025.88;7280188;19;153225;-63
2022/07/12 06:08:08;;;;;;;;;;;;;;;26.09;43.51;102025.88;7281813;19;154533;-63
2022/07/12 06:10:35;;;;;;;;;;;;;;;26.04;43.77;102026.84;7279679;19;152155;-63
2022/07/12 06:13:02;;;;;;;;;;;;;;;26.08;43.65;102027.88;7283235;19;152279;-63
2022/07/12 06:15:29;;;;;;;;;;;;;;;26.06;44.07;102021.69;7290983;19;153295;-63
2022/07/12 06:18:00;;;;;;;;;;;;;;;26.06;44.48;102021.69;7284092;19;153082;-64
2022/07/12 06:20:27;;;;;;;;;;;;;;;26.08;44.00;102029.84;7279307;19;154292;-63
2022/07/12 06:22:53;;;;;;;;;;;;;;;26.06;43.66;102029.34;7283573;19;152051;-63
2022/07/12 06:25:21;;;;;;;;;;;;;;;26.07;44.22;102037.50;7278701;19;152872;-63
2022/07/12 06:28:08;;;;;;;;;;;;;;;26.03;44.00;102027.97;7281858;19;154428;-64
2022/07/12 06:30:34;;;;;;;;;;;;;;;26.05;43.63;102033.34;7281411;19;152310;-64
2022/07/12 06:33:01;;;;;;;;;;;;;;;26.03;43.81;102027.13;7283660;19;152944;-63
2022/07/12 06:35:28;;;;;;;;;;;;;;;25.98;43.84;102035.78;7280446;19;154338;-65
2022/07/12 06:37:55;;;;;;;;;;;;;;;25.96;44.16;102033.25;7291151;19;152143;-65
2022/07/12 06:40:21;;;;;;;;;;;;;;;25.86;44.60;102036.31;7276211;19;154697;-65
2022/07/12 06:42:52;;;;;;;;;;;;;;;25.88;44.52;102036.84;7283937;19;152799;-65
2022/07/12 06:45:38;;;;;;;;;;;;;;;25.83;44.69;102041.78;7282340;19;153364;-65
2022/07/12 06:48:05;;;;;;;;;;;;;;;25.82;44.82;102040.97;7282158;19;154333;-65
2022/07/12 06:50:32;;;;;;;;;;;;;;;25.80;44.92;102036.78;7279932;19;154743;-65
2022/07/12 06:52:59;;;;;;;;;;;;;;;25.79;44.54;102030.28;7284168;19;152616;-65
2022/07/12 06:55:26;;;;;;;;;;;;;;;25.75;44.61;102032.06;7278353;19;153965;-65
2022/07/12 06:57:53;;;;;;;;;;;;;;;25.74;44.78;102027.56;7290039;19;151885;-65
2022/07/12 07:00:20;;;;;;;;;;;;;;;25.71;44.88;102025.38;7276249;19;154213;-65
2022/07/12 07:02:46;;;;;;;;;;;;;;;25.69;45.17;102033.34;7278915;19;152548;-65
2022/07/12 07:05:15;;;;;;;;;;;;;;;25.66;45.22;102023.50;7280211;19;153362;-65
2022/07/12 07:07:42;;;;;;;;;;;;;;;25.67;45.15;102024.31;7278825;19;153617;-65
2022/07/12 07:10:09;;;;;;;;;;;;;;;25.68;44.69;102020.31;7278279;19;152119;-65
2022/07/12 07:12:35;;;;;;;;;;;;;;;25.66;44.51;102022.66;7281021;19;153335;-65
2022/07/12 07:15:02;;;;;;;;;;;;;;;25.69;44.14;102022.00;7281551;19;153347;-65
2022/07/12 07:17:29;;;;;;;;;;;;;;;25.71;44.31;102025.38;7282145;19;152678;-65
2022/07/12 07:19:56;;;;;;;;;;;;;;;25.65;44.94;102026.63;7286518;19;153230;-65
2022/07/12 07:22:22;;;;;;;;;;;;;;;25.65;44.97;102016.16;7278047;19;153634;-65
2022/07/12 07:24:49;;;;;;;;;;;;;;;25.64;44.94;102017.31;7280680;19;152950;-66
2022/07/12 07:27:16;;;;;;;;;;;;;;;25.63;45.10;102014.78;7279550;19;153449;-65
2022/07/12 07:32:28;;;;;;;;;;;;;;;25.75;45.01;102014.25;7281592;19;153468;-65
2022/07/12 07:34:54;;;;;;;;;;;;;;;25.75;45.36;102011.41;7279630;19;153182;-66
2022/07/12 07:37:23;;;;;;;;;;;;;;;25.74;45.28;102002.06;7281800;19;153027;-66
2022/07/12 07:39:50;;;;;;;;;;;;;;;25.77;45.17;101998.59;7276767;19;152488;-65
2022/07/12 07:42:17;;;;;;;;;;;;;;;25.74;45.22;102007.75;7285441;19;154295;-66
2022/07/12 07:44:43;;;;;;;;;;;;;;;25.76;44.72;101999.75;7280382;19;152366;-66
2022/07/12 07:47:31;;;;;;;;;;;;;;;25.76;45.01;102002.56;7280074;19;157242;-66
2022/07/12 07:49:57;;;;;;;;;;;;;;;25.78;44.88;102000.28;7279655;19;151986;-66
2022/07/12 07:52:24;;;;;;;;;;;;;;;25.80;44.82;102002.81;7279943;19;153203;-67
2022/07/12 07:54:51;;;;;;;;;;;;;;;25.76;45.19;102013.91;7277785;19;153296;-66
2022/07/12 07:57:17;;;;;;;;;;;;;;;25.76;44.94;102019.56;7279574;19;152139;-66
2022/07/12 07:59:44;;;;;;;;;;;;;;;25.77;45.20;102028.91;7280329;19;153245;-66
2022/07/12 08:02:11;;;;;;;;;;;;;;;25.78;45.17;102034.25;7277395;19;152486;-66
2022/07/12 08:04:38;;;;;;;;;;;;;;;25.77;44.84;102031.72;7287030;19;153377;-66
2022/07/12 08:07:05;;;;;;;;;;;;;;;25.78;44.51;102039.06;7278171;19;152634;-66
2022/07/12 08:09:32;;;;;;;;;;;;;;;25.78;45.02;102034.25;7278592;19;151955;-66
2022/07/12 08:11:58;;;;;;;;;;;;;;;25.77;45.43;102035.41;7279463;19;152195;-66
2022/07/12 08:14:25;;;;;;;;;;;;;;;25.77;45.28;102037.41;7277443;19;153422;-66
2022/07/12 08:16:51;;;;;;;;;;;;;;;25.81;45.14;102042.09;7279353;19;152662;-66
2022/07/12 08:19:18;;;;;;;;;;;;;;;25.81;45.18;102047.75;7279296;19;152354;-66
2022/07/12 08:21:45;;;;;;;;;;;;;;;25.83;45.25;102053.97;7277993;19;153218;-66
2022/07/12 08:24:12;;;;;;;;;;;;;;;25.83;44.90;102056.78;7276702;19;152471;-66
2022/07/12 08:26:39;;;;;;;;;;;;;;;25.81;44.76;102067.59;7285624;19;154206;-66
2022/07/12 08:29:06;;;;;;;;;;;;;;;25.82;44.27;102065.59;7280759;19;152328;-66
2022/07/12 08:31:36;;;;;;;;;;;;;;;25.82;44.48;102069.28;7276985;19;154694;-66
2022/07/12 08:34:03;;;;;;;;;;;;;;;25.85;44.16;102071.47;7276268;19;154088;-66
2022/07/12 08:36:30;;;;;;;;;;;;;;;25.87;43.84;102065.50;7277924;19;152080;-66
2022/07/12 08:39:00;;;;;;;;;;;;;;;25.89;43.48;102068.84;7277943;19;153363;-66
2022/07/12 08:41:29;;;;;;;;;;;;;;;25.92;43.39;102071.03;7275294;19;153084;-66
2022/07/12 08:43:55;;;;;;;;;;;;;;;25.90;42.75;102079.84;7280123;19;152362;-66
2022/07/12 08:46:22;;;;;;;;;;;;;;;25.92;43.11;102080.38;7279617;19;152681;-66
2022/07/12 08:48:49;;;;;;;;;;;;;;;25.95;43.35;102073.22;7284905;19;151855;-66
2022/07/12 08:51:26;;;;;;;;;;;;;;;25.93;43.83;102081.22;7278565;19;153455;-66
2022/07/12 08:54:09;;;;;;;;;;;;;;;25.95;43.54;102082.56;7275458;19;153995;-66
2022/07/12 08:56:40;;;;;;;;;;;;;;;25.95;43.94;102074.06;7279297;19;152288;-66
2022/07/12 08:59:17;;;;;;;;;;;;;;;25.95;43.22;102078.88;7277827;19;152089;-66
2022/07/12 09:01:45;;;;;;;;;;;;;;;25.95;43.33;102078.88;7274079;19;154180;-66
2022/07/12 09:04:13;;;;;;;;;;;;;;;25.95;43.62;102065.56;7278725;19;152017;-66
2022/07/12 09:06:40;;;;;;;;;;;;;;;25.92;44.17;102063.38;7277997;19;153289;-66
2022/07/12 09:09:08;;;;;;;;;;;;;;;25.89;44.80;102049.88;7282323;19;152764;-66
2022/07/12 09:11:36;;;;;;;;;;;;;;;25.92;44.70;102051.22;7277167;19;152241;-66
2022/07/12 09:14:03;;;;;;;;;;;;;;;25.90;44.70;102048.69;7277630;19;153276;-66
2022/07/12 09:16:30;;;;;;;;;;;;;;;25.91;44.90;102041.88;7277038;19;151941;-66
2022/07/12 09:19:12;;;;;;;;;;;;;;;25.89;44.65;102044.22;7277922;19;153546;-66
2022/07/12 09:21:53;;;;;;;;;;;;;;;25.89;44.87;102051.88;7273473;19;153627;-66
2022/07/12 09:24:28;;;;;;;;;;;;;;;25.86;44.95;102046.81;7276066;19;155221;-66
2022/07/12 09:27:02;;;;;;;;;;;;;;;25.87;44.96;102043.69;7274659;19;152886;-66
2022/07/12 09:29:30;;;;;;;;;;;;;;;25.87;45.17;102046.50;7276724;19;153089;-66
2022/07/12 09:37:27;;;;;;;;;;;;;;;25.88;45.12;102019.03;7277218;19;152080;-66
2022/07/12 09:39:54;;;;;;;;;;;;;;;25.88;45.05;102019.88;7274845;19;152284;-66
2022/07/12 09:42:21;;;;;;;;;;;;;;;25.89;44.79;102018.72;7275403;19;152559;-66
2022/07/12 09:44:55;;;;;;;;;;;;;;;25.89;45.14;102027.22;7282890;19;151773;-66
2022/07/12 09:47:22;;;;;;;;;;;;;;;25.89;44.98;102038.53;7284223;19;153615;-66
2022/07/12 09:49:49;;;;;;;;;;;;;;;25.91;44.54;102033.38;7279616;19;152228;-66
2022/07/12 09:52:20;;;;;;;;;;;;;;;25.94;44.20;102029.06;7280952;19;152649;-66
2022/07/12 09:54:49;;;;;;;;;;;;;;;25.97;44.10;102040.59;7288702;19;152372;-66
2022/07/12 09:57:36;;;;;;;;;;;;;;;25.97;44.72;102032.13;7282512;19;152445;-66
2022/07/12 10:00:06;;;;;;;;;;;;;;;25.95;44.38;102040.06;7284539;19;153353;-66
2022/07/12 10:02:34;;;;;;;;;;;;;;;25.98;43.99;102039.44;7281311;19;152957;-66
2022/07/12 10:05:02;;;;;;;;;;;;;;;25.99;44.49;102037.44;7281638;19;152447;-66
2022/07/12 10:07:30;;;;;;;;;;;;;;;25.99;44.43;102029.78;7283359;19;152155;-66
2022/07/12 10:09:57;;;;;;;;;;;;;;;26.00;44.53;102025.81;7280758;19;153891;-66
2022/07/12 10:12:24;;;;;;;;;;;;;;;26.02;44.11;102037.66;7283015;19;152265;-66
2022/07/12 10:14:56;;;;;;;;;;;;;;;26.06;43.94;102040.69;7284278;19;153109;-66
2022/07/12 10:17:24;;;;;;;;;;;;;;;26.10;43.50;102034.06;7290091;19;154064;-66
2022/07/12 10:20:10;;;;;;;;;;;;;;;26.13;43.94;102029.72;7283554;19;153580;-66
2022/07/12 10:22:37;;;;;;;;;;;;;;;26.11;43.98;102032.06;7281838;19;153929;-66
2022/07/12 10:25:24;;;;;;;;;;;;;;;26.15;44.41;102033.09;7280731;19;153825;-66
2022/07/12 10:27:50;;;;;;;;;;;;;;;26.21;44.13;102033.84;7282657;19;152468;-66
2022/07/12 10:30:22;;;;;;;;;;;;;;;26.21;43.93;102034.66;7279290;19;153894;-66
2022/07/12 10:32:50;;;;;;;;;;;;;;;26.20;43.90;102010.31;7284741;19;152106;-66
2022/07/12 10:35:18;;;;;;;;;;;;;;;26.18;43.90;102012.63;7278761;19;153417;-66
2022/07/12 10:38:04;;;;;;;;;;;;;;;26.20;44.20;102018.81;7282726;19;154559;-66
2022/07/12 10:40:34;;;;;;;;;;;;;;;26.22;44.40;102010.84;7285880;19;151995;-66
2022/07/12 10:43:00;;;;;;;;;;;;;;;26.19;44.19;102002.13;7283197;19;153664;-66
2022/07/12 10:45:31;;;;;;;;;;;;;;;26.17;44.23;102008.09;7281592;19;152477;-66
2022/07/12 10:48:06;;;;;;;;;;;;;;;26.20;44.65;102006.63;7283427;19;152687;-66
2022/07/12 10:50:48;;;;;;;;;;;;;;;26.18;44.07;101998.44;7279942;19;152941;-66
2022/07/12 10:53:25;;;;;;;;;;;;;;;26.18;44.21;102000.44;7281363;19;152704;-66
2022/07/12 10:56:04;;;;;;;;;;;;;;;26.21;44.21;101997.81;7281408;19;153506;-66
2022/07/12 10:58:33;;;;;;;;;;;;;;;26.22;44.36;101995.84;7280550;19;155723;-66
2022/07/12 11:01:01;;;;;;;;;;;;;;;26.22;44.38;101995.84;7289204;19;151478;-66
2022/07/12 11:03:36;;;;;;;;;;;;;;;26.25;44.00;101996.06;7281163;19;153496;-66
2022/07/12 11:06:03;;;;;;;;;;;;;;;26.28;44.09;102001.06;7279412;19;152116;-66
2022/07/12 11:08:30;;;;;;;;;;;;;;;26.26;44.37;101989.19;7279615;19;152625;-65
2022/07/12 11:11:00;;;;;;;;;;;;;;;26.25;44.14;101986.72;7275100;19;152861;-66
2022/07/12 11:13:27;;;;;;;;;;;;;;;26.26;44.34;101986.38;7278281;19;153918;-66
2022/07/12 11:15:59;;;;;;;;;;;;;;;26.29;44.36;101999.06;7281977;19;154391;-66
2022/07/12 11:18:29;;;;;;;;;;;;;;;26.29;44.29;101997.06;7280526;19;153880;-66
2022/07/12 11:21:00;;;;;;;;;;;;;;;26.32;44.16;101992.75;7279277;19;152359;-66
2022/07/12 11:23:29;;;;;;;;;;;;;;;26.33;44.26;101992.44;7284464;19;152802;-66
2022/07/12 11:25:57;;;;;;;;;;;;;;;26.34;43.50;101985.63;7281492;19;152083;-66
2022/07/12 11:28:24;;;;;;;;;;;;;;;26.39;43.57;101981.81;7278250;19;153204;-66
2022/07/12 11:30:51;;;;;;;;;;;;;;;26.40;43.31;101972.97;7279747;19;152521;-66
2022/07/12 11:33:18;;;;;;;;;;;;;;;26.38;44.02;101977.28;7282108;19;152481;-66
2022/07/12 11:35:46;;;;;;;;;;;;;;;26.40;43.87;101974.97;7280661;19;154087;-66
2022/07/12 11:38:13;;;;;;;;;;;;;;;26.40;43.67;101967.28;7278720;19;152355;-66
2022/07/12 11:40:40;;;;;;;;;;;;;;;26.42;43.90;101969.81;7277773;19;153404;-66
2022/07/12 11:43:06;;;;;;;;;;;;;;;26.41;43.65;101970.97;7281340;19;154129;-66
2022/07/12 11:45:33;;;;;;;;;;;;;;;26.39;43.59;101976.13;7286089;19;153472;-66
2022/07/12 11:48:01;;;;;;;;;;;;;;;26.37;43.87;101978.44;7281101;19;153324;-66
2022/07/12 11:50:31;;;;;;;;;;;;;;;26.40;43.37;101969.28;7276360;19;154662;-66
2022/07/12 11:53:01;;;;;;;;;;;;;;;26.45;42.64;101970.00;7282000;19;152676;-66
2022/07/12 11:55:28;;;;;;;;;;;;;;;26.46;43.22;101965.16;7276028;19;153544;-66
2022/07/12 11:58:05;;;;;;;;;;;;;;;26.45;43.48;101964.34;7280629;19;154050;-66
2022/07/12 12:00:32;;;;;;;;;;;;;;;26.44;43.59;101950.47;7280675;19;152755;-66
2022/07/12 12:02:59;;;;;;;;;;;;;;;26.44;43.40;101956.97;7278604;19;152604;-66
2022/07/12 12:05:26;;;;;;;;;;;;;;;26.45;43.29;101960.66;7277936;19;153999;-66
2022/07/12 12:07:52;;;;;;;;;;;;;;;26.44;43.51;101945.63;7285990;19;152065;-66
2022/07/12 12:10:21;;;;;;;;;;;;;;;26.42;43.29;101953.66;7275912;19;154064;-66
2022/07/12 12:12:58;;;;;;;;;;;;;;;26.48;43.07;101937.34;7280515;19;152889;-66
2022/07/12 12:15:24;;;;;;;;;;;;;;;26.49;43.27;101941.84;7279291;19;153486;-66
2022/07/12 12:17:55;;;;;;;;;;;;;;;26.49;43.27;101933.31;7279853;19;153868;-66
2022/07/12 12:20:23;;;;;;;;;;;;;;;26.45;43.41;101930.31;7276657;19;153450;-66
2022/07/12 12:22:53;;;;;;;;;;;;;;;26.50;43.25;101940.69;7278067;19;153713;-66
2022/07/12 12:25:20;;;;;;;;;;;;;;;26.55;43.02;101951.88;7275844;19;152409;-66
2022/07/12 12:27:54;;;;;;;;;;;;;;;26.55;43.15;101934.88;7280329;19;152111;-66
2022/07/12 12:30:49;;;;;;;;;;;;;;;26.56;43.22;101942.22;7284483;19;153148;-66
2022/07/12 12:33:32;;;;;;;;;;;;;;;26.58;43.19;101944.72;7278907;19;152139;-66
2022/07/12 12:36:10;;;;;;;;;;;;;;;26.54;43.16;101939.69;7278616;19;152675;-66
2022/07/12 12:38:37;;;;;;;;;;;;;;;26.49;43.54;101930.50;7275246;19;156085;-66
2022/07/12 12:41:04;;;;;;;;;;;;;;;26.51;43.50;101945.19;7279248;19;151899;-66